sensor_id;sensor_type;location;lat;lon;timestamp;P1;durP1;ratioP1;P2;durP2;ratioP2
3985;SDS011;2007;48.750;9.278;2024-01-15T00:00:10;11.80;;;6.80;;
3985;SDS011;2007;48.750;9.278;2024-01-15T00:02:39;8.90;;;6.13;;
3985;SDS011;2007;48.750;9.278;2024-01-15T00:05:08;11.23;;;6.80;;
3985;SDS011;2007;48.750;9.278;2024-01-15T00:07:37;8.27;;;6.10;;
3985;SDS011;2007;48.750;9.278;2024-01-15T00:10:05;8.90;;;6.23;;
3985;SDS011;2007;48.750;9.278;2024-01-15T00:12:33;10.30;;;6.33;;
3985;SDS011;2007;48.750;9.278;2024-01-15T00:15:01;10.20;;;6.13;;
3985;SDS011;2007;48.750;9.278;2024-01-15T00:17:29;9.77;;;6.73;;
3985;SDS011;2007;48.750;9.278;2024-01-15T00:19:57;11.03;;;6.70;;
3985;SDS011;2007;48.750;9.278;2024-01-15T00:22:27;9.77;;;6.13;;
3985;SDS011;2007;48.750;9.278;2024-01-15T00:24:55;11.13;;;5.97;;
3985;SDS011;2007;48.750;9.278;2024-01-15T00:27:23;7.67;;;5.73;;
3985;SDS011;2007;48.750;9.278;2024-01-15T00:29:51;10.13;;;6.30;;
3985;SDS011;2007;48.750;9.278;2024-01-15T00:32:20;8.80;;;5.27;;
3985;SDS011;2007;48.750;9.278;2024-01-15T00:34:48;7.93;;;5.80;;
3985;SDS011;2007;48.750;9.278;2024-01-15T00:37:17;11.10;;;6.50;;
3985;SDS011;2007;48.750;9.278;2024-01-15T00:39:46;9.80;;;6.80;;
3985;SDS011;2007;48.750;9.278;2024-01-15T00:42:14;8.67;;;6.13;;
3985;SDS011;2007;48.750;9.278;2024-01-15T00:44:42;8.43;;;5.63;;
3985;SDS011;2007;48.750;9.278;2024-01-15T00:47:10;9.03;;;5.87;;
3985;SDS011;2007;48.750;9.278;2024-01-15T00:49:38;10.13;;;5.90;;
3985;SDS011;2007;48.750;9.278;2024-01-15T00:52:06;9.33;;;5.70;;
3985;SDS011;2007;48.750;9.278;2024-01-15T00:54:34;7.87;;;5.60;;
3985;SDS011;2007;48.750;9.278;2024-01-15T00:57:04;10.53;;;5.40;;
3985;SDS011;2007;48.750;9.278;2024-01-15T00:59:32;9.17;;;5.87;;
3985;SDS011;2007;48.750;9.278;2024-01-15T01:02:00;8.40;;;5.70;;
3985;SDS011;2007;48.750;9.278;2024-01-15T01:04:28;7.53;;;5.30;;
3985;SDS011;2007;48.750;9.278;2024-01-15T01:06:57;7.87;;;5.43;;
3985;SDS011;2007;48.750;9.278;2024-01-15T01:09:25;9.37;;;6.47;;
3985;SDS011;2007;48.750;9.278;2024-01-15T01:11:55;7.00;;;5.70;;
3985;SDS011;2007;48.750;9.278;2024-01-15T01:14:25;10.37;;;5.90;;
3985;SDS011;2007;48.750;9.278;2024-01-15T01:16:52;11.30;;;6.87;;
3985;SDS011;2007;48.750;9.278;2024-01-15T01:19:20;8.87;;;5.63;;
3985;SDS011;2007;48.750;9.278;2024-01-15T01:21:49;7.83;;;5.60;;
3985;SDS011;2007;48.750;9.278;2024-01-15T01:24:17;8.20;;;5.80;;
3985;SDS011;2007;48.750;9.278;2024-01-15T01:26:45;9.77;;;6.03;;
3985;SDS011;2007;48.750;9.278;2024-01-15T01:29:13;9.83;;;6.03;;
3985;SDS011;2007;48.750;9.278;2024-01-15T01:31:46;7.97;;;6.10;;
3985;SDS011;2007;48.750;9.278;2024-01-15T01:34:14;8.30;;;5.07;;
3985;SDS011;2007;48.750;9.278;2024-01-15T01:36:43;10.53;;;6.20;;
3985;SDS011;2007;48.750;9.278;2024-01-15T01:39:11;9.10;;;6.07;;
3985;SDS011;2007;48.750;9.278;2024-01-15T01:41:39;6.80;;;5.20;;
3985;SDS011;2007;48.750;9.278;2024-01-15T01:44:07;8.33;;;5.70;;
3985;SDS011;2007;48.750;9.278;2024-01-15T01:46:35;7.60;;;5.60;;
3985;SDS011;2007;48.750;9.278;2024-01-15T01:49:08;8.57;;;5.57;;
3985;SDS011;2007;48.750;9.278;2024-01-15T01:51:37;8.40;;;5.73;;
3985;SDS011;2007;48.750;9.278;2024-01-15T01:54:06;10.80;;;5.57;;
3985;SDS011;2007;48.750;9.278;2024-01-15T01:56:37;8.10;;;5.57;;
3985;SDS011;2007;48.750;9.278;2024-01-15T01:59:05;6.57;;;4.53;;
3985;SDS011;2007;48.750;9.278;2024-01-15T02:01:35;8.73;;;5.37;;
3985;SDS011;2007;48.750;9.278;2024-01-15T02:04:03;9.47;;;5.43;;
3985;SDS011;2007;48.750;9.278;2024-01-15T02:06:34;8.00;;;5.80;;
3985;SDS011;2007;48.750;9.278;2024-01-15T02:09:02;7.90;;;5.53;;
3985;SDS011;2007;48.750;9.278;2024-01-15T02:11:31;9.20;;;5.47;;
3985;SDS011;2007;48.750;9.278;2024-01-15T02:13:59;8.27;;;4.90;;
3985;SDS011;2007;48.750;9.278;2024-01-15T02:16:27;12.17;;;6.23;;
3985;SDS011;2007;48.750;9.278;2024-01-15T02:18:55;6.80;;;5.00;;
3985;SDS011;2007;48.750;9.278;2024-01-15T02:21:23;6.33;;;5.60;;
3985;SDS011;2007;48.750;9.278;2024-01-15T02:23:57;8.20;;;5.00;;
3985;SDS011;2007;48.750;9.278;2024-01-15T02:26:25;7.37;;;5.43;;
3985;SDS011;2007;48.750;9.278;2024-01-15T02:28:54;6.73;;;4.93;;
3985;SDS011;2007;48.750;9.278;2024-01-15T02:31:22;9.20;;;5.63;;
3985;SDS011;2007;48.750;9.278;2024-01-15T02:33:50;7.20;;;4.70;;
3985;SDS011;2007;48.750;9.278;2024-01-15T02:36:18;8.97;;;5.47;;
3985;SDS011;2007;48.750;9.278;2024-01-15T02:38:47;7.10;;;4.53;;
3985;SDS011;2007;48.750;9.278;2024-01-15T02:41:16;7.37;;;4.67;;
3985;SDS011;2007;48.750;9.278;2024-01-15T02:43:44;5.87;;;4.90;;
3985;SDS011;2007;48.750;9.278;2024-01-15T02:46:12;8.00;;;5.23;;
3985;SDS011;2007;48.750;9.278;2024-01-15T02:48:40;5.63;;;4.47;;
3985;SDS011;2007;48.750;9.278;2024-01-15T02:51:09;7.77;;;5.13;;
3985;SDS011;2007;48.750;9.278;2024-01-15T02:53:37;7.17;;;4.90;;
3985;SDS011;2007;48.750;9.278;2024-01-15T02:56:06;7.90;;;4.90;;
3985;SDS011;2007;48.750;9.278;2024-01-15T02:58:35;8.27;;;5.80;;
3985;SDS011;2007;48.750;9.278;2024-01-15T03:01:03;5.50;;;4.70;;
3985;SDS011;2007;48.750;9.278;2024-01-15T03:03:32;9.03;;;4.77;;
3985;SDS011;2007;48.750;9.278;2024-01-15T03:06:01;7.83;;;5.43;;
3985;SDS011;2007;48.750;9.278;2024-01-15T03:08:29;7.13;;;4.73;;
3985;SDS011;2007;48.750;9.278;2024-01-15T03:10:57;7.07;;;4.87;;
3985;SDS011;2007;48.750;9.278;2024-01-15T03:13:25;5.87;;;4.30;;
3985;SDS011;2007;48.750;9.278;2024-01-15T03:15:54;6.10;;;4.30;;
3985;SDS011;2007;48.750;9.278;2024-01-15T03:18:23;6.83;;;4.30;;
3985;SDS011;2007;48.750;9.278;2024-01-15T03:20:51;7.20;;;4.10;;
3985;SDS011;2007;48.750;9.278;2024-01-15T03:23:19;7.80;;;4.77;;
3985;SDS011;2007;48.750;9.278;2024-01-15T03:25:47;5.67;;;3.83;;
3985;SDS011;2007;48.750;9.278;2024-01-15T03:28:15;6.40;;;4.60;;
3985;SDS011;2007;48.750;9.278;2024-01-15T03:30:43;6.10;;;3.60;;
3985;SDS011;2007;48.750;9.278;2024-01-15T03:33:13;5.70;;;4.27;;
3985;SDS011;2007;48.750;9.278;2024-01-15T03:35:41;6.17;;;3.87;;
3985;SDS011;2007;48.750;9.278;2024-01-15T03:38:09;7.20;;;4.10;;
3985;SDS011;2007;48.750;9.278;2024-01-15T03:40:37;5.73;;;4.33;;
3985;SDS011;2007;48.750;9.278;2024-01-15T03:43:05;6.93;;;4.70;;
3985;SDS011;2007;48.750;9.278;2024-01-15T03:45:33;5.53;;;4.70;;
3985;SDS011;2007;48.750;9.278;2024-01-15T03:48:01;6.87;;;5.07;;
3985;SDS011;2007;48.750;9.278;2024-01-15T03:50:31;6.00;;;3.50;;
3985;SDS011;2007;48.750;9.278;2024-01-15T03:52:59;5.30;;;3.83;;
3985;SDS011;2007;48.750;9.278;2024-01-15T03:55:27;6.00;;;3.90;;
3985;SDS011;2007;48.750;9.278;2024-01-15T03:57:55;5.67;;;4.30;;
3985;SDS011;2007;48.750;9.278;2024-01-15T04:00:23;6.20;;;4.40;;
3985;SDS011;2007;48.750;9.278;2024-01-15T04:02:51;4.63;;;3.83;;
3985;SDS011;2007;48.750;9.278;2024-01-15T04:05:20;5.30;;;3.83;;
3985;SDS011;2007;48.750;9.278;2024-01-15T04:07:49;6.17;;;4.10;;
3985;SDS011;2007;48.750;9.278;2024-01-15T04:10:17;6.27;;;4.00;;
3985;SDS011;2007;48.750;9.278;2024-01-15T04:12:45;5.07;;;3.50;;
3985;SDS011;2007;48.750;9.278;2024-01-15T04:15:13;5.80;;;3.90;;
3985;SDS011;2007;48.750;9.278;2024-01-15T04:17:41;6.60;;;4.10;;
3985;SDS011;2007;48.750;9.278;2024-01-15T04:20:10;7.23;;;4.40;;
3985;SDS011;2007;48.750;9.278;2024-01-15T04:22:38;5.13;;;3.63;;
3985;SDS011;2007;48.750;9.278;2024-01-15T04:25:08;6.00;;;4.00;;
3985;SDS011;2007;48.750;9.278;2024-01-15T04:27:36;6.00;;;4.37;;
3985;SDS011;2007;48.750;9.278;2024-01-15T04:30:04;7.17;;;4.67;;
3985;SDS011;2007;48.750;9.278;2024-01-15T04:32:33;4.93;;;3.70;;
3985;SDS011;2007;48.750;9.278;2024-01-15T04:35:01;5.43;;;3.80;;
3985;SDS011;2007;48.750;9.278;2024-01-15T04:37:29;5.53;;;4.00;;
3985;SDS011;2007;48.750;9.278;2024-01-15T04:39:57;5.77;;;4.27;;
3985;SDS011;2007;48.750;9.278;2024-01-15T04:42:26;8.53;;;4.20;;
3985;SDS011;2007;48.750;9.278;2024-01-15T04:44:54;4.60;;;3.83;;
3985;SDS011;2007;48.750;9.278;2024-01-15T04:47:22;5.73;;;3.80;;
3985;SDS011;2007;48.750;9.278;2024-01-15T04:49:50;6.70;;;3.70;;
3985;SDS011;2007;48.750;9.278;2024-01-15T04:52:18;5.20;;;3.80;;
3985;SDS011;2007;48.750;9.278;2024-01-15T04:54:46;4.87;;;3.50;;
3985;SDS011;2007;48.750;9.278;2024-01-15T04:57:15;5.53;;;3.70;;
3985;SDS011;2007;48.750;9.278;2024-01-15T04:59:44;4.77;;;3.40;;
3985;SDS011;2007;48.750;9.278;2024-01-15T05:02:12;6.07;;;3.90;;
3985;SDS011;2007;48.750;9.278;2024-01-15T05:04:40;6.13;;;4.00;;
3985;SDS011;2007;48.750;9.278;2024-01-15T05:07:08;5.23;;;3.73;;
3985;SDS011;2007;48.750;9.278;2024-01-15T05:09:36;7.00;;;4.10;;
3985;SDS011;2007;48.750;9.278;2024-01-15T05:12:04;5.67;;;4.97;;
3985;SDS011;2007;48.750;9.278;2024-01-15T05:14:32;6.57;;;3.57;;
3985;SDS011;2007;48.750;9.278;2024-01-15T05:17:02;5.10;;;3.60;;
3985;SDS011;2007;48.750;9.278;2024-01-15T05:19:33;4.30;;;3.17;;
3985;SDS011;2007;48.750;9.278;2024-01-15T05:22:02;3.87;;;3.57;;
3985;SDS011;2007;48.750;9.278;2024-01-15T05:24:30;5.57;;;3.57;;
3985;SDS011;2007;48.750;9.278;2024-01-15T05:26:58;5.23;;;3.90;;
3985;SDS011;2007;48.750;9.278;2024-01-15T05:29:26;4.53;;;3.30;;
3985;SDS011;2007;48.750;9.278;2024-01-15T05:31:54;4.87;;;2.90;;
3985;SDS011;2007;48.750;9.278;2024-01-15T05:34:28;5.90;;;3.40;;
3985;SDS011;2007;48.750;9.278;2024-01-15T05:36:56;6.17;;;4.00;;
3985;SDS011;2007;48.750;9.278;2024-01-15T05:39:24;3.90;;;3.00;;
3985;SDS011;2007;48.750;9.278;2024-01-15T05:41:52;4.17;;;3.10;;
3985;SDS011;2007;48.750;9.278;2024-01-15T05:44:20;3.63;;;3.20;;
3985;SDS011;2007;48.750;9.278;2024-01-15T05:46:48;5.20;;;3.60;;
3985;SDS011;2007;48.750;9.278;2024-01-15T05:49:16;4.33;;;3.10;;
3985;SDS011;2007;48.750;9.278;2024-01-15T05:51:46;5.53;;;3.67;;
3985;SDS011;2007;48.750;9.278;2024-01-15T05:54:14;3.70;;;3.00;;
3985;SDS011;2007;48.750;9.278;2024-01-15T05:56:42;5.77;;;4.20;;
3985;SDS011;2007;48.750;9.278;2024-01-15T05:59:10;5.50;;;3.43;;
3985;SDS011;2007;48.750;9.278;2024-01-15T06:01:41;4.23;;;3.43;;
3985;SDS011;2007;48.750;9.278;2024-01-15T06:04:09;4.40;;;3.60;;
3985;SDS011;2007;48.750;9.278;2024-01-15T06:06:37;4.50;;;3.07;;
3985;SDS011;2007;48.750;9.278;2024-01-15T06:09:07;7.17;;;4.00;;
3985;SDS011;2007;48.750;9.278;2024-01-15T06:11:35;4.87;;;3.00;;
3985;SDS011;2007;48.750;9.278;2024-01-15T06:14:03;5.83;;;3.60;;
3985;SDS011;2007;48.750;9.278;2024-01-15T06:16:31;4.50;;;3.07;;
3985;SDS011;2007;48.750;9.278;2024-01-15T06:18:59;4.63;;;3.90;;
3985;SDS011;2007;48.750;9.278;2024-01-15T06:21:27;5.60;;;3.70;;
3985;SDS011;2007;48.750;9.278;2024-01-15T06:23:55;4.90;;;3.87;;
3985;SDS011;2007;48.750;9.278;2024-01-15T06:26:24;6.50;;;3.37;;
3985;SDS011;2007;48.750;9.278;2024-01-15T06:28:52;3.80;;;2.73;;
3985;SDS011;2007;48.750;9.278;2024-01-15T06:31:20;3.60;;;3.03;;
3985;SDS011;2007;48.750;9.278;2024-01-15T06:33:49;3.57;;;2.90;;
3985;SDS011;2007;48.750;9.278;2024-01-15T06:36:17;4.83;;;3.67;;
3985;SDS011;2007;48.750;9.278;2024-01-15T06:38:45;3.40;;;2.70;;
3985;SDS011;2007;48.750;9.278;2024-01-15T06:41:13;4.00;;;2.93;;
3985;SDS011;2007;48.750;9.278;2024-01-15T06:43:42;5.00;;;3.30;;
3985;SDS011;2007;48.750;9.278;2024-01-15T06:46:10;4.80;;;3.10;;
3985;SDS011;2007;48.750;9.278;2024-01-15T06:48:38;3.13;;;2.70;;
3985;SDS011;2007;48.750;9.278;2024-01-15T06:51:06;4.70;;;3.17;;
3985;SDS011;2007;48.750;9.278;2024-01-15T06:53:34;4.70;;;3.17;;
3985;SDS011;2007;48.750;9.278;2024-01-15T06:56:02;3.67;;;3.33;;
3985;SDS011;2007;48.750;9.278;2024-01-15T06:58:30;4.27;;;3.00;;
3985;SDS011;2007;48.750;9.278;2024-01-15T07:01:00;4.07;;;3.17;;
3985;SDS011;2007;48.750;9.278;2024-01-15T07:03:28;4.60;;;3.20;;
3985;SDS011;2007;48.750;9.278;2024-01-15T07:05:56;4.53;;;3.13;;
3985;SDS011;2007;48.750;9.278;2024-01-15T07:08:24;3.70;;;2.90;;
3985;SDS011;2007;48.750;9.278;2024-01-15T07:10:52;4.93;;;3.10;;
3985;SDS011;2007;48.750;9.278;2024-01-15T07:13:24;4.33;;;2.70;;
3985;SDS011;2007;48.750;9.278;2024-01-15T07:15:52;3.40;;;2.93;;
3985;SDS011;2007;48.750;9.278;2024-01-15T07:18:22;3.87;;;2.47;;
3985;SDS011;2007;48.750;9.278;2024-01-15T07:20:50;3.90;;;3.23;;
3985;SDS011;2007;48.750;9.278;2024-01-15T07:23:18;5.43;;;3.50;;
3985;SDS011;2007;48.750;9.278;2024-01-15T07:25:46;5.10;;;3.27;;
3985;SDS011;2007;48.750;9.278;2024-01-15T07:28:14;3.77;;;2.43;;
3985;SDS011;2007;48.750;9.278;2024-01-15T07:30:42;4.97;;;3.20;;
3985;SDS011;2007;48.750;9.278;2024-01-15T07:33:11;5.23;;;3.00;;
3985;SDS011;2007;48.750;9.278;2024-01-15T07:35:41;4.07;;;3.07;;
3985;SDS011;2007;48.750;9.278;2024-01-15T07:38:09;4.60;;;3.17;;
3985;SDS011;2007;48.750;9.278;2024-01-15T07:40:38;5.50;;;2.90;;
3985;SDS011;2007;48.750;9.278;2024-01-15T07:43:06;4.80;;;3.20;;
3985;SDS011;2007;48.750;9.278;2024-01-15T07:45:34;3.50;;;2.60;;
3985;SDS011;2007;48.750;9.278;2024-01-15T07:48:02;3.30;;;2.63;;
3985;SDS011;2007;48.750;9.278;2024-01-15T07:50:30;3.50;;;2.50;;
3985;SDS011;2007;48.750;9.278;2024-01-15T07:53:00;3.83;;;2.93;;
3985;SDS011;2007;48.750;9.278;2024-01-15T07:55:28;4.10;;;2.47;;
3985;SDS011;2007;48.750;9.278;2024-01-15T07:57:56;3.90;;;2.60;;
3985;SDS011;2007;48.750;9.278;2024-01-15T08:00:40;3.37;;;2.20;;
3985;SDS011;2007;48.750;9.278;2024-01-15T08:03:08;6.00;;;3.10;;
3985;SDS011;2007;48.750;9.278;2024-01-15T08:05:36;4.20;;;2.70;;
3985;SDS011;2007;48.750;9.278;2024-01-15T08:08:06;3.23;;;2.63;;
3985;SDS011;2007;48.750;9.278;2024-01-15T08:10:34;4.03;;;2.93;;
3985;SDS011;2007;48.750;9.278;2024-01-15T08:13:02;3.50;;;2.63;;
3985;SDS011;2007;48.750;9.278;2024-01-15T08:15:30;4.10;;;3.37;;
3985;SDS011;2007;48.750;9.278;2024-01-15T08:17:58;3.03;;;2.20;;
3985;SDS011;2007;48.750;9.278;2024-01-15T08:20:26;4.10;;;2.80;;
3985;SDS011;2007;48.750;9.278;2024-01-15T08:22:54;5.50;;;3.40;;
3985;SDS011;2007;48.750;9.278;2024-01-15T08:25:23;2.60;;;2.40;;
3985;SDS011;2007;48.750;9.278;2024-01-15T08:27:52;3.80;;;2.47;;
3985;SDS011;2007;48.750;9.278;2024-01-15T08:30:20;3.40;;;2.50;;
3985;SDS011;2007;48.750;9.278;2024-01-15T08:32:51;3.07;;;2.20;;
3985;SDS011;2007;48.750;9.278;2024-01-15T08:35:20;4.27;;;2.60;;
3985;SDS011;2007;48.750;9.278;2024-01-15T08:37:49;2.80;;;2.27;;
3985;SDS011;2007;48.750;9.278;2024-01-15T08:40:17;4.23;;;3.00;;
3985;SDS011;2007;48.750;9.278;2024-01-15T08:42:46;5.20;;;2.70;;
3985;SDS011;2007;48.750;9.278;2024-01-15T08:45:15;3.77;;;3.23;;
3985;SDS011;2007;48.750;9.278;2024-01-15T08:47:43;4.03;;;2.83;;
3985;SDS011;2007;48.750;9.278;2024-01-15T08:50:11;4.80;;;2.97;;
3985;SDS011;2007;48.750;9.278;2024-01-15T08:52:39;3.43;;;2.63;;
3985;SDS011;2007;48.750;9.278;2024-01-15T08:55:07;3.57;;;2.53;;
3985;SDS011;2007;48.750;9.278;2024-01-15T08:57:35;3.37;;;2.40;;
3985;SDS011;2007;48.750;9.278;2024-01-15T09:00:05;3.50;;;2.60;;
3985;SDS011;2007;48.750;9.278;2024-01-15T09:02:34;5.77;;;2.70;;
3985;SDS011;2007;48.750;9.278;2024-01-15T09:05:03;2.77;;;2.13;;
3985;SDS011;2007;48.750;9.278;2024-01-15T09:07:32;3.20;;;2.20;;
3985;SDS011;2007;48.750;9.278;2024-01-15T09:10:00;2.80;;;2.50;;
3985;SDS011;2007;48.750;9.278;2024-01-15T09:12:28;4.17;;;2.60;;
3985;SDS011;2007;48.750;9.278;2024-01-15T09:14:56;2.73;;;2.10;;
3985;SDS011;2007;48.750;9.278;2024-01-15T09:17:26;3.20;;;2.57;;
3985;SDS011;2007;48.750;9.278;2024-01-15T09:19:54;6.20;;;2.90;;
3985;SDS011;2007;48.750;9.278;2024-01-15T09:22:22;4.37;;;2.60;;
3985;SDS011;2007;48.750;9.278;2024-01-15T09:24:50;5.07;;;2.73;;
3985;SDS011;2007;48.750;9.278;2024-01-15T09:27:18;3.53;;;2.80;;
3985;SDS011;2007;48.750;9.278;2024-01-15T09:29:46;3.63;;;2.83;;
3985;SDS011;2007;48.750;9.278;2024-01-15T09:32:14;3.63;;;2.70;;
3985;SDS011;2007;48.750;9.278;2024-01-15T09:34:43;2.93;;;2.20;;
3985;SDS011;2007;48.750;9.278;2024-01-15T09:37:13;3.37;;;2.63;;
3985;SDS011;2007;48.750;9.278;2024-01-15T09:40:01;4.17;;;2.87;;
3985;SDS011;2007;48.750;9.278;2024-01-15T09:42:30;3.10;;;2.43;;
3985;SDS011;2007;48.750;9.278;2024-01-15T09:44:58;3.30;;;2.40;;
3985;SDS011;2007;48.750;9.278;2024-01-15T09:47:27;4.03;;;2.50;;
3985;SDS011;2007;48.750;9.278;2024-01-15T09:49:56;3.13;;;2.00;;
3985;SDS011;2007;48.750;9.278;2024-01-15T09:52:25;3.27;;;2.47;;
3985;SDS011;2007;48.750;9.278;2024-01-15T09:54:53;4.03;;;2.57;;
3985;SDS011;2007;48.750;9.278;2024-01-15T09:57:21;2.70;;;2.07;;
3985;SDS011;2007;48.750;9.278;2024-01-15T09:59:50;2.50;;;2.20;;
3985;SDS011;2007;48.750;9.278;2024-01-15T10:02:20;3.20;;;2.47;;
3985;SDS011;2007;48.750;9.278;2024-01-15T10:04:48;2.57;;;2.17;;
3985;SDS011;2007;48.750;9.278;2024-01-15T10:07:18;3.90;;;2.17;;
3985;SDS011;2007;48.750;9.278;2024-01-15T10:09:46;2.60;;;2.00;;
3985;SDS011;2007;48.750;9.278;2024-01-15T10:12:14;3.57;;;2.30;;
3985;SDS011;2007;48.750;9.278;2024-01-15T10:14:43;2.67;;;2.37;;
3985;SDS011;2007;48.750;9.278;2024-01-15T10:17:12;3.93;;;2.20;;
3985;SDS011;2007;48.750;9.278;2024-01-15T10:19:41;2.50;;;2.03;;
3985;SDS011;2007;48.750;9.278;2024-01-15T10:22:14;2.63;;;2.00;;
3985;SDS011;2007;48.750;9.278;2024-01-15T10:24:46;2.93;;;2.00;;
3985;SDS011;2007;48.750;9.278;2024-01-15T10:27:15;3.40;;;2.60;;
3985;SDS011;2007;48.750;9.278;2024-01-15T10:29:43;3.70;;;2.33;;
3985;SDS011;2007;48.750;9.278;2024-01-15T10:32:11;2.77;;;1.73;;
3985;SDS011;2007;48.750;9.278;2024-01-15T10:34:43;2.73;;;1.80;;
3985;SDS011;2007;48.750;9.278;2024-01-15T10:37:11;3.43;;;2.07;;
3985;SDS011;2007;48.750;9.278;2024-01-15T10:39:39;2.77;;;2.10;;
3985;SDS011;2007;48.750;9.278;2024-01-15T10:42:09;2.60;;;2.17;;
3985;SDS011;2007;48.750;9.278;2024-01-15T10:44:37;2.73;;;2.17;;
3985;SDS011;2007;48.750;9.278;2024-01-15T10:47:05;3.77;;;2.47;;
3985;SDS011;2007;48.750;9.278;2024-01-15T10:49:34;3.50;;;2.07;;
3985;SDS011;2007;48.750;9.278;2024-01-15T10:52:02;3.97;;;2.03;;
3985;SDS011;2007;48.750;9.278;2024-01-15T10:54:31;2.70;;;2.10;;
3985;SDS011;2007;48.750;9.278;2024-01-15T10:56:59;3.83;;;2.57;;
3985;SDS011;2007;48.750;9.278;2024-01-15T10:59:30;2.73;;;1.80;;
3985;SDS011;2007;48.750;9.278;2024-01-15T11:02:00;4.60;;;2.37;;
3985;SDS011;2007;48.750;9.278;2024-01-15T11:04:28;3.77;;;2.33;;
3985;SDS011;2007;48.750;9.278;2024-01-15T11:06:59;2.77;;;1.87;;
3985;SDS011;2007;48.750;9.278;2024-01-15T11:09:29;2.40;;;1.80;;
3985;SDS011;2007;48.750;9.278;2024-01-15T11:12:06;3.40;;;1.87;;
3985;SDS011;2007;48.750;9.278;2024-01-15T11:14:38;2.93;;;2.10;;
3985;SDS011;2007;48.750;9.278;2024-01-15T11:17:06;2.47;;;1.50;;
3985;SDS011;2007;48.750;9.278;2024-01-15T11:19:36;2.83;;;2.03;;
3985;SDS011;2007;48.750;9.278;2024-01-15T11:22:08;2.77;;;1.87;;
3985;SDS011;2007;48.750;9.278;2024-01-15T11:24:37;3.37;;;2.23;;
3985;SDS011;2007;48.750;9.278;2024-01-15T11:27:06;2.77;;;2.00;;
3985;SDS011;2007;48.750;9.278;2024-01-15T11:29:36;2.77;;;2.47;;
3985;SDS011;2007;48.750;9.278;2024-01-15T11:32:05;2.60;;;1.73;;
3985;SDS011;2007;48.750;9.278;2024-01-15T11:34:50;2.77;;;1.70;;
3985;SDS011;2007;48.750;9.278;2024-01-15T11:37:26;2.13;;;1.50;;
3985;SDS011;2007;48.750;9.278;2024-01-15T11:39:55;2.47;;;1.57;;
3985;SDS011;2007;48.750;9.278;2024-01-15T11:42:28;2.50;;;1.57;;
3985;SDS011;2007;48.750;9.278;2024-01-15T11:44:58;2.87;;;1.90;;
3985;SDS011;2007;48.750;9.278;2024-01-15T11:50:46;2.43;;;1.83;;
3985;SDS011;2007;48.750;9.278;2024-01-15T11:53:26;2.37;;;2.03;;
3985;SDS011;2007;48.750;9.278;2024-01-15T11:55:58;3.33;;;1.97;;
3985;SDS011;2007;48.750;9.278;2024-01-15T11:58:26;2.93;;;1.90;;
3985;SDS011;2007;48.750;9.278;2024-01-15T12:00:56;2.20;;;1.87;;
3985;SDS011;2007;48.750;9.278;2024-01-15T12:03:24;3.17;;;2.20;;
3985;SDS011;2007;48.750;9.278;2024-01-15T12:05:52;2.43;;;1.87;;
3985;SDS011;2007;48.750;9.278;2024-01-15T12:08:21;3.27;;;2.10;;
3985;SDS011;2007;48.750;9.278;2024-01-15T12:10:49;2.93;;;2.10;;
3985;SDS011;2007;48.750;9.278;2024-01-15T12:13:18;2.87;;;2.13;;
3985;SDS011;2007;48.750;9.278;2024-01-15T12:15:47;2.20;;;1.70;;
3985;SDS011;2007;48.750;9.278;2024-01-15T12:18:18;2.10;;;1.83;;
3985;SDS011;2007;48.750;9.278;2024-01-15T12:20:47;3.50;;;1.97;;
3985;SDS011;2007;48.750;9.278;2024-01-15T12:23:16;2.70;;;1.70;;
3985;SDS011;2007;48.750;9.278;2024-01-15T12:25:44;2.47;;;1.80;;
3985;SDS011;2007;48.750;9.278;2024-01-15T12:28:13;3.03;;;2.00;;
3985;SDS011;2007;48.750;9.278;2024-01-15T12:30:45;2.90;;;2.33;;
3985;SDS011;2007;48.750;9.278;2024-01-15T12:33:17;2.20;;;1.67;;
3985;SDS011;2007;48.750;9.278;2024-01-15T12:35:47;2.20;;;1.70;;
3985;SDS011;2007;48.750;9.278;2024-01-15T12:38:15;2.40;;;1.50;;
3985;SDS011;2007;48.750;9.278;2024-01-15T12:40:46;2.23;;;1.77;;
3985;SDS011;2007;48.750;9.278;2024-01-15T12:43:15;2.70;;;1.87;;
3985;SDS011;2007;48.750;9.278;2024-01-15T12:45:44;3.30;;;1.80;;
3985;SDS011;2007;48.750;9.278;2024-01-15T12:48:13;2.17;;;1.60;;
3985;SDS011;2007;48.750;9.278;2024-01-15T12:50:46;2.67;;;1.60;;
3985;SDS011;2007;48.750;9.278;2024-01-15T12:53:14;3.43;;;1.97;;
3985;SDS011;2007;48.750;9.278;2024-01-15T12:55:43;2.30;;;1.57;;
3985;SDS011;2007;48.750;9.278;2024-01-15T12:58:11;3.00;;;1.90;;
3985;SDS011;2007;48.750;9.278;2024-01-15T13:00:41;3.33;;;2.20;;
3985;SDS011;2007;48.750;9.278;2024-01-15T13:03:09;2.90;;;1.90;;
3985;SDS011;2007;48.750;9.278;2024-01-15T13:05:37;2.23;;;1.37;;
3985;SDS011;2007;48.750;9.278;2024-01-15T13:08:08;3.80;;;2.30;;
3985;SDS011;2007;48.750;9.278;2024-01-15T13:10:36;2.80;;;1.77;;
3985;SDS011;2007;48.750;9.278;2024-01-15T13:13:04;1.90;;;1.50;;
3985;SDS011;2007;48.750;9.278;2024-01-15T13:15:32;2.10;;;1.90;;
3985;SDS011;2007;48.750;9.278;2024-01-15T13:18:00;2.00;;;1.57;;
3985;SDS011;2007;48.750;9.278;2024-01-15T13:20:28;3.20;;;1.60;;
3985;SDS011;2007;48.750;9.278;2024-01-15T13:22:56;2.30;;;1.70;;
3985;SDS011;2007;48.750;9.278;2024-01-15T13:25:26;2.93;;;1.60;;
3985;SDS011;2007;48.750;9.278;2024-01-15T13:27:54;2.87;;;1.97;;
3985;SDS011;2007;48.750;9.278;2024-01-15T13:30:22;2.20;;;1.90;;
3985;SDS011;2007;48.750;9.278;2024-01-15T13:32:50;3.83;;;2.13;;
3985;SDS011;2007;48.750;9.278;2024-01-15T13:35:18;2.30;;;1.80;;
3985;SDS011;2007;48.750;9.278;2024-01-15T13:37:46;2.47;;;1.80;;
3985;SDS011;2007;48.750;9.278;2024-01-15T13:40:14;1.87;;;1.57;;
3985;SDS011;2007;48.750;9.278;2024-01-15T13:42:47;3.40;;;1.90;;
3985;SDS011;2007;48.750;9.278;2024-01-15T13:45:18;2.57;;;1.93;;
3985;SDS011;2007;48.750;9.278;2024-01-15T13:47:46;1.97;;;1.53;;
3985;SDS011;2007;48.750;9.278;2024-01-15T13:50:15;2.80;;;2.00;;
3985;SDS011;2007;48.750;9.278;2024-01-15T13:52:43;3.03;;;2.00;;
3985;SDS011;2007;48.750;9.278;2024-01-15T13:55:11;2.53;;;1.90;;
3985;SDS011;2007;48.750;9.278;2024-01-15T13:57:39;2.33;;;2.00;;
3985;SDS011;2007;48.750;9.278;2024-01-15T14:00:09;2.30;;;1.63;;
3985;SDS011;2007;48.750;9.278;2024-01-15T14:02:39;2.40;;;2.10;;
3985;SDS011;2007;48.750;9.278;2024-01-15T14:05:08;2.63;;;1.70;;
3985;SDS011;2007;48.750;9.278;2024-01-15T14:07:39;3.30;;;1.60;;
3985;SDS011;2007;48.750;9.278;2024-01-15T14:10:07;2.63;;;1.90;;
3985;SDS011;2007;48.750;9.278;2024-01-15T14:12:36;2.33;;;1.70;;
3985;SDS011;2007;48.750;9.278;2024-01-15T14:15:04;4.33;;;1.97;;
3985;SDS011;2007;48.750;9.278;2024-01-15T14:17:34;2.60;;;1.63;;
3985;SDS011;2007;48.750;9.278;2024-01-15T14:20:03;2.43;;;1.37;;
3985;SDS011;2007;48.750;9.278;2024-01-15T14:22:32;2.67;;;1.67;;
3985;SDS011;2007;48.750;9.278;2024-01-15T14:25:00;2.63;;;1.80;;
3985;SDS011;2007;48.750;9.278;2024-01-15T14:27:28;4.50;;;1.90;;
3985;SDS011;2007;48.750;9.278;2024-01-15T14:29:56;2.60;;;2.23;;
3985;SDS011;2007;48.750;9.278;2024-01-15T14:32:24;2.37;;;1.73;;
3985;SDS011;2007;48.750;9.278;2024-01-15T14:34:55;2.27;;;1.80;;
3985;SDS011;2007;48.750;9.278;2024-01-15T14:37:23;2.17;;;1.70;;
3985;SDS011;2007;48.750;9.278;2024-01-15T14:39:54;2.40;;;1.70;;
3985;SDS011;2007;48.750;9.278;2024-01-15T14:42:22;1.90;;;1.50;;
3985;SDS011;2007;48.750;9.278;2024-01-15T14:44:51;2.73;;;2.00;;
3985;SDS011;2007;48.750;9.278;2024-01-15T14:47:19;2.70;;;1.93;;
3985;SDS011;2007;48.750;9.278;2024-01-15T14:49:50;2.40;;;1.93;;
3985;SDS011;2007;48.750;9.278;2024-01-15T14:52:20;2.27;;;1.60;;
3985;SDS011;2007;48.750;9.278;2024-01-15T14:54:48;3.60;;;2.10;;
3985;SDS011;2007;48.750;9.278;2024-01-15T14:57:16;2.73;;;1.97;;
3985;SDS011;2007;48.750;9.278;2024-01-15T14:59:44;2.77;;;1.70;;
3985;SDS011;2007;48.750;9.278;2024-01-15T15:02:12;1.80;;;1.40;;
3985;SDS011;2007;48.750;9.278;2024-01-15T15:04:41;2.70;;;1.87;;
3985;SDS011;2007;48.750;9.278;2024-01-15T15:07:14;2.40;;;2.07;;
3985;SDS011;2007;48.750;9.278;2024-01-15T15:09:44;2.93;;;1.40;;
3985;SDS011;2007;48.750;9.278;2024-01-15T15:12:12;1.90;;;1.37;;
3985;SDS011;2007;48.750;9.278;2024-01-15T15:14:41;2.53;;;1.60;;
3985;SDS011;2007;48.750;9.278;2024-01-15T15:17:24;2.50;;;1.80;;
3985;SDS011;2007;48.750;9.278;2024-01-15T15:19:53;2.67;;;1.90;;
3985;SDS011;2007;48.750;9.278;2024-01-15T15:22:21;2.80;;;1.70;;
3985;SDS011;2007;48.750;9.278;2024-01-15T15:24:50;2.50;;;1.90;;
3985;SDS011;2007;48.750;9.278;2024-01-15T15:27:19;2.10;;;1.57;;